Aviation Weather


METAR: 2021/04/18 02:50 ENVA 180250Z 11004KT CAVOK 01/M03 Q1030 RMK WIND 670FT 14010KT

Vær-rapport

METAR for
ENVA utstedt den 18/4-2021 klokka 02:50 UTC:


Vind: ?stlig svak vind fra 110 grader med en vindhastighet på 4 knop (2 m/s, 7 km/t, Styrke 2)
Vær: God sikt og ingen lave skyer
Temperatur: 1°C med duggpunkt på -3°C. Temperatur føles som -1.4°C.
Luftfuktigheten er: 75%.
Lufttrykk: 1030 hPa.
Bemerkning:
Vind: I en høyde av 670 fot er det S?r?stlig lett bris fra 140 grader med en vindhastighet på 10 knop (5 m/s, 19 km/t, Styrke 3)


TAF: 2021/04/18 00:00 TAF ENVA 172300Z 1800/1824 12005KT CAVOK PROB40 1810/1817 26010KT

Vær-prognose

Værprognose for
ENVA utstedt den 18/4-2021 klokka 00:00 UTC:


Varsel er gyldig mellom den 18. klokka 0:00 og den 18. klokka 24:00
Vind: S?r?stlig svak vind fra 120 grader med en vindhastighet på 5 knop (3 m/s, 9 km/t, Styrke 2)
Vær: God sikt og ingen lave skyer

Mellom den 18. klokka 10:00 og den 18. klokka 17:00 er det 40% sjanse for at det blir:
Vind: Vestlig lett bris fra 260 grader med en vindhastighet på 10 knop (5 m/s, 19 km/t, Styrke 3)